createdAt,value
2023-01-18T00:01:53.282Z,2.07
2023-01-18T00:04:22.617Z,2.38
2023-01-18T00:07:14.784Z,2.20
2023-01-18T00:09:41.969Z,2.58
2023-01-18T00:12:09.112Z,2.40
2023-01-18T00:14:36.289Z,2.43
2023-01-18T00:17:03.498Z,2.72
2023-01-18T00:19:30.774Z,2.15
2023-01-18T00:21:58.013Z,2.75
2023-01-18T00:24:28.518Z,2.47
2023-01-18T00:26:55.705Z,2.57
2023-01-18T00:29:22.901Z,2.53
2023-01-18T00:31:50.385Z,2.92
2023-01-18T00:34:20.146Z,2.70
2023-01-18T00:36:48.907Z,2.53
2023-01-18T00:39:18.647Z,2.60
2023-01-18T00:42:04.430Z,2.65
2023-01-18T00:44:34.015Z,2.78
2023-01-18T00:47:04.152Z,2.53
2023-01-18T00:49:33.606Z,2.80
2023-01-18T00:52:00.755Z,2.87
2023-01-18T00:54:28.016Z,2.67
2023-01-18T00:56:55.208Z,2.63
2023-01-18T00:59:22.409Z,2.95
2023-01-18T01:01:49.760Z,2.93
2023-01-18T01:04:35.425Z,3.00
2023-01-18T01:07:02.656Z,3.13
2023-01-18T01:09:30.351Z,2.65
2023-01-18T01:12:17.078Z,3.22
2023-01-18T01:15:07.492Z,3.13
2023-01-18T01:17:55.564Z,2.87
2023-01-18T01:20:41.970Z,3.08
2023-01-18T01:23:38.959Z,2.70
2023-01-18T01:26:08.294Z,2.75
2023-01-18T01:28:40.605Z,2.80
2023-01-18T01:31:13.565Z,2.90
2023-01-18T01:33:41.445Z,2.78
2023-01-18T01:36:13.264Z,2.58
2023-01-18T01:38:44.200Z,2.83
2023-01-18T01:41:15.385Z,3.30
2023-01-18T01:43:50.657Z,2.53
2023-01-18T01:46:45.426Z,3.05
2023-01-18T01:49:17.459Z,2.80
2023-01-18T01:51:47.101Z,2.80
2023-01-18T01:54:26.967Z,3.15
2023-01-18T01:57:00.629Z,3.40
2023-01-18T01:59:30.203Z,3.42
2023-01-18T02:01:57.434Z,2.80
2023-01-18T02:04:29.555Z,2.63
2023-01-18T02:06:58.821Z,3.00
2023-01-18T02:09:28.656Z,2.88
2023-01-18T02:11:58.227Z,3.20
2023-01-18T02:14:27.402Z,3.17
2023-01-18T02:17:12.509Z,3.78
2023-01-18T02:20:11.365Z,3.35
2023-01-18T02:23:20.465Z,3.60
2023-01-18T02:25:56.501Z,4.30
2023-01-18T02:28:36.564Z,8.35
2023-01-18T02:31:12.085Z,14.02
2023-01-18T02:34:10.141Z,12.50
2023-01-18T02:36:59.459Z,13.68
2023-01-18T02:39:44.276Z,15.57
2023-01-18T02:42:45.699Z,15.00
2023-01-18T02:45:44.158Z,15.05
2023-01-18T02:48:11.834Z,13.13
2023-01-18T02:50:39.345Z,10.27
2023-01-18T02:53:06.533Z,11.15
2023-01-18T02:55:45.530Z,9.68
2023-01-18T02:58:32.864Z,10.27
2023-01-18T03:01:06.863Z,8.23
2023-01-18T03:03:35.371Z,8.43
2023-01-18T03:06:08.569Z,10.00
2023-01-18T03:08:41.135Z,11.48
2023-01-18T03:11:33.207Z,13.20
2023-01-18T03:14:22.579Z,17.00
2023-01-18T03:16:58.968Z,17.67
2023-01-18T03:20:05.786Z,18.60
2023-01-18T03:23:14.128Z,14.63
2023-01-18T03:25:46.681Z,10.80
2023-01-18T03:28:36.902Z,7.17
2023-01-18T03:31:26.700Z,6.63
2023-01-18T03:34:00.409Z,6.30
2023-01-18T03:36:32.201Z,4.78
2023-01-18T03:39:13.336Z,4.85
2023-01-18T03:41:46.133Z,5.30
2023-01-18T03:44:33.680Z,7.65
2023-01-18T03:47:03.154Z,7.53
2023-01-18T03:49:32.287Z,6.90
2023-01-18T03:52:02.102Z,8.35
2023-01-18T03:54:46.877Z,7.30
2023-01-18T03:57:29.981Z,6.97
2023-01-18T04:00:00.721Z,9.93
2023-01-18T04:02:28.322Z,11.45
2023-01-18T04:04:57.787Z,11.02
2023-01-18T04:07:26.112Z,10.30
2023-01-18T04:09:53.478Z,10.07
2023-01-18T04:12:20.720Z,10.85
2023-01-18T04:14:50.213Z,10.48
2023-01-18T04:17:20.001Z,12.80
2023-01-18T04:19:47.145Z,12.60
2023-01-18T04:22:17.102Z,9.90
2023-01-18T04:24:44.550Z,5.93
2023-01-18T04:27:14.335Z,2.67
2023-01-18T04:29:43.688Z,0.90
2023-01-18T04:32:14.064Z,0.40
2023-01-18T04:34:41.325Z,0.70
2023-01-18T04:37:08.737Z,0.30
2023-01-18T04:39:35.850Z,0.40
2023-01-18T04:42:05.406Z,0.30
2023-01-18T04:44:34.808Z,0.30
2023-01-18T04:47:04.470Z,0.30
2023-01-18T04:49:34.132Z,0.20
2023-01-18T04:52:01.391Z,0.10
2023-01-18T04:54:28.717Z,0.10
2023-01-18T04:56:55.865Z,0.10
2023-01-18T04:59:23.045Z,0.10
2023-01-18T05:01:52.892Z,0.40
2023-01-18T05:04:21.009Z,1.33
2023-01-18T05:06:53.035Z,1.33
2023-01-18T05:09:20.242Z,1.13
2023-01-18T05:11:47.450Z,0.80
2023-01-18T05:14:14.781Z,1.00
2023-01-18T05:16:44.495Z,0.93
2023-01-18T05:19:13.967Z,0.63
2023-01-18T05:21:41.490Z,0.30
2023-01-18T05:24:08.705Z,0.40
2023-01-18T05:26:36.457Z,0.30
2023-01-18T05:29:03.755Z,0.30
2023-01-18T05:31:31.007Z,0.30
2023-01-18T05:33:58.352Z,0.27
2023-01-18T05:36:27.942Z,0.20
2023-01-18T05:38:58.021Z,0.20
2023-01-18T05:41:25.229Z,0.20
2023-01-18T05:43:54.434Z,0.10
2023-01-18T05:46:21.592Z,0.10
2023-01-18T05:48:50.922Z,0.20
2023-01-18T05:51:20.237Z,0.10
2023-01-18T05:53:47.430Z,0.10
2023-01-18T05:56:17.026Z,0.10
2023-01-18T05:58:46.579Z,0.20
2023-01-18T06:01:16.204Z,0.20
2023-01-18T06:03:43.531Z,0.10
2023-01-18T06:06:10.829Z,0.20
2023-01-18T06:08:40.251Z,0.20
2023-01-18T06:11:07.860Z,0.17
2023-01-18T06:13:35.184Z,0.20
2023-01-18T06:16:05.164Z,0.17
2023-01-18T06:18:33.417Z,0.20
2023-01-18T06:21:03.220Z,0.20
2023-01-18T06:23:32.719Z,0.30
2023-01-18T06:25:59.989Z,0.35
2023-01-18T06:28:30.819Z,0.50
2023-01-18T06:30:58.517Z,0.60
2023-01-18T06:33:25.790Z,0.40
2023-01-18T06:35:53.019Z,0.40
2023-01-18T06:38:23.246Z,0.30
2023-01-18T06:40:52.737Z,0.20
2023-01-18T06:43:19.963Z,0.20
2023-01-18T06:45:56.900Z,0.20
2023-01-18T06:48:25.205Z,0.20
2023-01-18T06:50:53.192Z,0.20
2023-01-18T06:53:22.867Z,0.10
2023-01-18T06:56:01.890Z,0.20
2023-01-18T06:58:35.764Z,0.20
2023-01-18T07:01:03.921Z,0.20
2023-01-18T07:03:31.500Z,0.20
2023-01-18T07:06:01.357Z,0.20
2023-01-18T07:08:31.639Z,0.40
2023-01-18T07:10:59.621Z,0.60
2023-01-18T07:13:27.107Z,0.90
2023-01-18T07:16:00.991Z,0.70
2023-01-18T07:18:30.553Z,0.68
2023-01-18T07:20:58.508Z,0.57
2023-01-18T07:23:26.885Z,1.25
2023-01-18T07:26:12.136Z,0.60
2023-01-18T07:28:39.463Z,0.50
2023-01-18T07:31:08.217Z,0.40
2023-01-18T07:33:38.410Z,0.60
2023-01-18T07:36:07.398Z,0.40
2023-01-18T07:38:34.604Z,0.50
2023-01-18T07:41:04.040Z,0.40
2023-01-18T07:43:33.863Z,0.30
2023-01-18T07:46:04.080Z,0.30
2023-01-18T07:48:34.213Z,0.30
2023-01-18T07:51:07.260Z,0.20
2023-01-18T07:53:36.509Z,0.20
2023-01-18T07:56:09.176Z,0.20
2023-01-18T07:58:36.432Z,0.20
2023-01-18T08:01:07.339Z,0.20
2023-01-18T08:03:36.433Z,0.10
2023-01-18T08:06:07.303Z,0.10
2023-01-18T08:08:36.120Z,0.20
2023-01-18T08:11:05.473Z,0.20
2023-01-18T08:13:33.244Z,0.20
2023-01-18T08:16:05.336Z,0.30
2023-01-18T08:18:32.893Z,0.30
2023-01-18T08:21:00.210Z,0.30
2023-01-18T08:23:27.507Z,0.30
2023-01-18T08:25:55.492Z,0.50
2023-01-18T08:28:23.103Z,0.40
2023-01-18T08:30:50.359Z,0.40
2023-01-18T08:33:20.133Z,0.30
2023-01-18T08:35:48.020Z,0.30
2023-01-18T08:38:16.543Z,0.30
2023-01-18T08:40:43.731Z,0.30
2023-01-18T08:43:13.524Z,0.30
2023-01-18T08:45:40.763Z,0.52
2023-01-18T08:48:11.825Z,0.40
2023-01-18T08:50:43.095Z,0.50
2023-01-18T08:53:14.885Z,0.38
2023-01-18T08:55:42.031Z,0.30
2023-01-18T08:58:09.240Z,0.40
2023-01-18T09:00:38.526Z,0.30
2023-01-18T09:03:06.842Z,0.35
2023-01-18T09:05:36.745Z,0.40
2023-01-18T09:08:06.423Z,0.40
2023-01-18T09:10:37.541Z,0.32
2023-01-18T09:13:05.944Z,0.40
2023-01-18T09:15:33.201Z,0.40
2023-01-18T09:18:05.886Z,0.53
2023-01-18T09:20:36.092Z,0.20
2023-01-18T09:23:07.126Z,0.20
2023-01-18T09:25:37.822Z,0.30
2023-01-18T09:28:05.593Z,0.30
2023-01-18T09:30:35.997Z,0.30
2023-01-18T09:33:03.333Z,0.30
2023-01-18T09:35:30.655Z,0.20
2023-01-18T09:37:57.957Z,0.20
2023-01-18T09:40:38.114Z,0.40
2023-01-18T09:43:16.120Z,0.20
2023-01-18T09:45:46.881Z,0.20
2023-01-18T09:48:28.093Z,0.30
2023-01-18T09:50:59.161Z,0.20
2023-01-18T09:53:29.105Z,0.20
2023-01-18T09:56:22.052Z,0.20
2023-01-18T09:59:10.380Z,0.37
2023-01-18T10:01:38.736Z,0.30
2023-01-18T10:04:08.840Z,0.40
2023-01-18T10:06:54.005Z,0.25
2023-01-18T10:09:27.198Z,0.20
2023-01-18T10:11:59.755Z,0.20
2023-01-18T10:14:53.110Z,0.20
2023-01-18T10:17:24.133Z,0.20
2023-01-18T10:19:51.921Z,0.20
2023-01-18T10:22:25.215Z,0.17
2023-01-18T10:25:22.977Z,0.20
2023-01-18T10:28:27.719Z,0.20
2023-01-18T10:31:15.492Z,0.10
2023-01-18T10:33:44.612Z,0.13
2023-01-18T10:36:13.975Z,0.10
2023-01-18T10:38:45.460Z,0.10
2023-01-18T10:41:20.173Z,0.10
2023-01-18T10:43:47.626Z,0.10
2023-01-18T10:46:19.818Z,0.20
2023-01-18T10:49:20.181Z,0.20
2023-01-18T10:52:12.459Z,0.13
2023-01-18T10:54:40.533Z,0.13
2023-01-18T10:57:20.463Z,0.20
2023-01-18T10:59:52.740Z,0.20
2023-01-18T11:02:27.450Z,0.20
2023-01-18T11:04:59.375Z,0.20
2023-01-18T11:07:29.736Z,0.20
2023-01-18T11:09:59.619Z,0.20
2023-01-18T11:12:56.302Z,0.20
2023-01-18T11:15:26.945Z,0.20
2023-01-18T11:17:58.039Z,0.20
2023-01-18T11:20:36.817Z,0.10
2023-01-18T11:23:17.764Z,0.10
2023-01-18T11:25:52.607Z,0.10
2023-01-18T11:28:21.575Z,0.10
2023-01-18T11:31:21.124Z,0.20
2023-01-18T11:34:01.683Z,0.20
2023-01-18T11:36:37.707Z,0.20
2023-01-18T11:39:29.265Z,0.20
2023-01-18T11:42:13.863Z,0.20
2023-01-18T11:44:50.773Z,0.10
2023-01-18T11:47:29.003Z,0.20
2023-01-18T11:50:10.342Z,0.40
2023-01-18T11:52:48.958Z,0.20
2023-01-18T11:55:32.505Z,0.30
2023-01-18T11:58:05.248Z,0.30
2023-01-18T12:00:45.756Z,0.20
2023-01-18T12:03:40.199Z,0.20
2023-01-18T12:06:24.150Z,0.20
2023-01-18T12:09:03.676Z,0.20
2023-01-18T12:11:48.236Z,0.20
2023-01-18T12:14:34.129Z,0.20
2023-01-18T12:17:14.066Z,0.20
2023-01-18T12:19:58.647Z,0.40
2023-01-18T12:22:31.955Z,0.20
2023-01-18T12:25:04.560Z,0.20
2023-01-18T12:27:40.422Z,0.20
2023-01-18T12:30:15.865Z,0.15
2023-01-18T12:33:06.626Z,0.20
2023-01-18T12:36:07.413Z,0.10
2023-01-18T12:38:36.176Z,0.10
2023-01-18T12:41:21.603Z,0.10
2023-01-18T12:44:00.962Z,0.10
2023-01-18T12:47:03.079Z,0.10
2023-01-18T12:49:36.529Z,0.10
2023-01-18T12:52:18.430Z,0.20
2023-01-18T12:54:52.277Z,0.15
2023-01-18T12:57:21.359Z,0.10
2023-01-18T12:59:57.586Z,0.20
2023-01-18T13:02:36.935Z,0.10
2023-01-18T13:05:35.501Z,0.10
2023-01-18T13:08:16.834Z,0.10
2023-01-18T13:10:47.664Z,0.10
2023-01-18T13:13:19.945Z,0.10
2023-01-18T13:15:47.114Z,0.17
2023-01-18T13:18:42.512Z,0.10
2023-01-18T13:21:31.580Z,0.10
2023-01-18T13:24:11.462Z,0.10
2023-01-18T13:26:38.908Z,0.10
2023-01-18T13:29:23.027Z,0.20
2023-01-18T13:31:50.895Z,0.20
2023-01-18T13:34:28.821Z,0.20
2023-01-18T13:37:13.517Z,0.10
2023-01-18T13:39:47.833Z,0.10
2023-01-18T13:42:20.800Z,0.30
2023-01-18T13:44:50.152Z,0.30
2023-01-18T13:47:35.685Z,0.10
2023-01-18T13:50:03.119Z,0.20
2023-01-18T13:52:31.086Z,0.20
2023-01-18T13:55:04.051Z,0.20
2023-01-18T13:57:33.540Z,0.20
2023-01-18T14:00:02.388Z,0.20
2023-01-18T14:02:42.429Z,0.20
2023-01-18T14:05:43.838Z,0.22
2023-01-18T14:08:22.231Z,0.20
2023-01-18T14:10:53.059Z,0.47
2023-01-18T14:13:46.088Z,0.30
2023-01-18T14:16:19.349Z,0.40
2023-01-18T14:18:55.405Z,0.93
2023-01-18T14:21:54.252Z,0.57
2023-01-18T14:24:43.341Z,0.60
2023-01-18T14:27:20.619Z,1.17
2023-01-18T14:30:05.064Z,2.90
2023-01-18T14:32:38.981Z,2.95
2023-01-18T14:35:25.422Z,2.80
2023-01-18T14:38:16.775Z,3.03
2023-01-18T14:40:49.125Z,2.60
2023-01-18T14:43:32.201Z,1.23
2023-01-18T14:46:09.930Z,0.60
2023-01-18T14:48:52.116Z,0.60
2023-01-18T14:51:23.207Z,0.70
2023-01-18T14:53:54.273Z,0.40
2023-01-18T14:56:30.318Z,0.40
2023-01-18T14:59:27.498Z,0.50
2023-01-18T15:02:00.043Z,2.05
2023-01-18T15:04:33.007Z,4.13
2023-01-18T15:07:02.120Z,3.92
2023-01-18T15:09:32.732Z,2.60
2023-01-18T15:12:05.983Z,2.08
2023-01-18T15:14:37.809Z,1.40
2023-01-18T15:17:21.337Z,0.93
2023-01-18T15:19:53.062Z,0.70
2023-01-18T15:22:29.703Z,0.68
2023-01-18T15:24:58.763Z,0.50
2023-01-18T15:27:29.109Z,0.40
2023-01-18T15:30:00.358Z,0.50
2023-01-18T15:32:31.449Z,0.43
2023-01-18T15:35:00.206Z,1.05
2023-01-18T15:37:32.589Z,0.60
2023-01-18T15:40:21.333Z,0.70
2023-01-18T15:42:58.002Z,0.70
2023-01-18T15:45:38.732Z,0.70
2023-01-18T15:48:18.674Z,1.30
2023-01-18T15:50:53.794Z,1.80
2023-01-18T15:53:30.318Z,1.90
2023-01-18T15:56:03.451Z,2.83
2023-01-18T15:58:46.069Z,4.32
2023-01-18T16:01:13.378Z,4.22
2023-01-18T16:03:45.549Z,5.50
2023-01-18T16:06:16.874Z,5.80
2023-01-18T16:08:56.889Z,7.30
2023-01-18T16:11:31.386Z,10.02
2023-01-18T16:14:07.682Z,13.98
2023-01-18T16:16:40.807Z,12.23
2023-01-18T16:19:17.272Z,9.50
2023-01-18T16:21:50.146Z,17.17
2023-01-18T16:24:22.861Z,24.90
2023-01-18T16:26:50.296Z,15.85
2023-01-18T16:29:17.865Z,13.40
2023-01-18T16:31:45.594Z,10.40
2023-01-18T16:34:28.023Z,6.60
2023-01-18T16:36:57.919Z,3.85
2023-01-18T16:39:25.250Z,3.90
2023-01-18T16:41:59.878Z,2.78
2023-01-18T16:44:29.723Z,2.22
2023-01-18T16:46:57.165Z,4.00
2023-01-18T16:49:27.118Z,6.78
2023-01-18T16:51:54.733Z,8.95
2023-01-18T16:54:22.211Z,6.88
2023-01-18T16:56:50.092Z,7.22
2023-01-18T16:59:21.834Z,5.33
2023-01-18T17:01:49.884Z,6.05
2023-01-18T17:04:17.875Z,5.65
2023-01-18T17:06:47.517Z,4.65
2023-01-18T17:09:24.413Z,4.82
2023-01-18T17:11:52.450Z,6.47
2023-01-18T17:14:22.152Z,6.60
2023-01-18T17:16:49.672Z,7.72
2023-01-18T17:19:19.594Z,9.52
2023-01-18T17:21:48.451Z,7.82
2023-01-18T17:24:17.049Z,5.87
2023-01-18T17:26:46.449Z,3.67
2023-01-18T17:29:18.068Z,3.38
2023-01-18T17:31:52.180Z,4.45
2023-01-18T17:34:28.204Z,5.43
2023-01-18T17:37:03.219Z,5.97
2023-01-18T17:39:43.965Z,5.90
2023-01-18T17:42:14.298Z,4.60
2023-01-18T17:44:43.726Z,2.60
2023-01-18T17:47:13.494Z,1.92
2023-01-18T17:49:42.990Z,2.67
2023-01-18T17:52:10.180Z,1.92
2023-01-18T17:54:37.395Z,2.08
2023-01-18T17:57:06.923Z,2.85
2023-01-18T17:59:34.191Z,3.60
2023-01-18T18:02:01.404Z,3.40
2023-01-18T18:04:33.005Z,3.47
2023-01-18T18:07:00.326Z,3.08
2023-01-18T18:09:29.914Z,2.53
2023-01-18T18:11:57.486Z,2.47
2023-01-18T18:17:11.408Z,3.15
2023-01-18T18:19:38.626Z,3.58
2023-01-18T18:22:07.946Z,3.30
2023-01-18T18:24:35.067Z,3.03
2023-01-18T18:27:04.497Z,3.33
2023-01-18T18:29:33.910Z,3.80
2023-01-18T18:32:01.102Z,3.58
2023-01-18T18:34:30.186Z,3.78
2023-01-18T18:36:57.441Z,4.40
2023-01-18T18:44:59.067Z,4.50
2023-01-18T18:47:26.374Z,3.03
2023-01-18T18:49:53.533Z,3.13
2023-01-18T18:52:23.219Z,2.73
2023-01-18T18:54:50.401Z,2.45
2023-01-18T18:57:19.879Z,2.78
2023-01-18T18:59:47.020Z,1.95
2023-01-18T19:02:16.220Z,2.70
2023-01-18T19:04:43.499Z,2.03
2023-01-18T19:07:10.705Z,2.80
2023-01-18T19:09:38.133Z,3.00
2023-01-18T19:12:05.510Z,3.28
2023-01-18T19:14:32.709Z,3.47
2023-01-18T19:17:00.234Z,3.83
2023-01-18T19:19:27.370Z,3.08
2023-01-18T19:21:54.628Z,4.05
2023-01-18T19:24:24.947Z,3.72
2023-01-18T19:26:52.222Z,3.50
2023-01-18T19:29:19.742Z,3.97
2023-01-18T19:31:47.084Z,4.20
2023-01-18T19:34:16.540Z,4.05
2023-01-18T19:36:46.054Z,3.60
2023-01-18T19:39:21.849Z,4.13
2023-01-18T19:41:49.898Z,4.37
2023-01-18T19:44:17.145Z,3.42
2023-01-18T19:46:44.378Z,4.10
2023-01-18T19:49:11.529Z,3.97
2023-01-18T19:51:41.291Z,4.57
2023-01-18T19:54:11.048Z,4.83
2023-01-18T19:56:38.512Z,4.30
2023-01-18T19:59:05.815Z,4.72
2023-01-18T20:01:37.270Z,4.57
2023-01-18T20:04:08.250Z,4.67
2023-01-18T20:06:38.448Z,4.77
2023-01-18T20:09:17.849Z,5.05
2023-01-18T20:11:46.445Z,5.57
2023-01-18T20:14:13.729Z,6.20
2023-01-18T20:16:45.990Z,5.93
2023-01-18T20:19:17.738Z,5.97
2023-01-18T20:21:45.359Z,5.70
2023-01-18T20:24:12.571Z,6.28
2023-01-18T20:26:42.385Z,6.38
2023-01-18T20:29:10.118Z,6.75
2023-01-18T20:31:39.232Z,6.67
2023-01-18T20:34:07.823Z,5.38
2023-01-18T20:36:36.176Z,5.07
2023-01-18T20:39:09.209Z,4.80
2023-01-18T20:41:36.430Z,4.63
2023-01-18T20:44:05.812Z,4.17
2023-01-18T20:46:33.025Z,4.22
2023-01-18T20:49:03.598Z,4.30
2023-01-18T20:51:31.517Z,3.78
2023-01-18T20:53:59.037Z,4.37
2023-01-18T20:56:29.577Z,5.47
2023-01-18T20:58:59.538Z,6.30
2023-01-18T21:01:32.285Z,6.43
2023-01-18T21:04:01.631Z,7.43
2023-01-18T21:06:31.621Z,7.22
2023-01-18T21:09:50.196Z,4.37
2023-01-18T21:12:20.607Z,3.35
2023-01-18T21:14:47.764Z,2.83
2023-01-18T21:17:15.071Z,3.45
2023-01-18T21:19:47.431Z,2.83
2023-01-18T21:22:15.177Z,3.17
2023-01-18T21:24:42.406Z,3.20
2023-01-18T21:27:09.547Z,3.97
2023-01-18T21:29:37.018Z,3.75
2023-01-18T21:32:31.918Z,4.20
2023-01-18T21:34:59.075Z,4.37
2023-01-18T21:37:27.418Z,3.38
2023-01-18T21:39:54.662Z,3.22
2023-01-18T21:42:40.472Z,3.55
2023-01-18T21:45:31.123Z,2.40
2023-01-18T21:47:59.899Z,3.27
2023-01-18T21:51:10.632Z,4.18
2023-01-18T21:53:56.607Z,5.22
2023-01-18T21:56:25.998Z,6.30
2023-01-18T21:58:53.164Z,6.00
2023-01-18T22:01:34.383Z,5.77
2023-01-18T22:04:27.261Z,6.63
2023-01-18T22:07:00.354Z,5.90
2023-01-18T22:09:31.218Z,5.90
2023-01-18T22:11:58.578Z,6.70
2023-01-18T22:14:26.658Z,5.57
2023-01-18T22:16:53.987Z,5.25
2023-01-18T22:19:21.545Z,5.60
2023-01-18T22:21:51.638Z,4.63
2023-01-18T22:24:19.048Z,4.05
2023-01-18T22:26:46.297Z,3.37
2023-01-18T22:29:15.930Z,3.03
2023-01-18T22:31:43.179Z,3.38
2023-01-18T22:34:19.288Z,3.50
2023-01-18T22:36:46.495Z,2.80
2023-01-18T22:39:14.462Z,3.57
2023-01-18T22:41:42.228Z,3.25
2023-01-18T22:44:10.921Z,2.50
2023-01-18T22:46:40.245Z,3.38
2023-01-18T22:49:07.440Z,3.45
2023-01-18T22:51:36.969Z,2.97
2023-01-18T22:54:04.232Z,2.78
2023-01-18T22:56:31.588Z,2.88
2023-01-18T22:58:59.986Z,3.08
2023-01-18T23:01:32.204Z,2.63
2023-01-18T23:04:02.729Z,3.33
2023-01-18T23:06:42.293Z,3.40
2023-01-18T23:09:13.183Z,3.28
2023-01-18T23:11:42.704Z,2.88
2023-01-18T23:14:28.411Z,2.60
2023-01-18T23:17:13.975Z,3.47
2023-01-18T23:19:43.548Z,3.63
2023-01-18T23:22:12.843Z,2.95
2023-01-18T23:24:40.123Z,3.65
2023-01-18T23:27:10.203Z,3.27
2023-01-18T23:29:39.923Z,3.87
2023-01-18T23:32:09.462Z,3.50
2023-01-18T23:34:36.741Z,3.47
2023-01-18T23:37:03.962Z,4.32
2023-01-18T23:39:49.641Z,4.00
2023-01-18T23:42:35.017Z,3.60
2023-01-18T23:45:23.201Z,3.78
2023-01-18T23:48:11.671Z,3.92
2023-01-18T23:50:57.250Z,3.90
2023-01-18T23:53:43.024Z,3.45
2023-01-18T23:56:10.255Z,4.17
2023-01-18T23:58:40.605Z,4.05
